createdAt,value
2019-02-04T00:03:16.009Z,5.57
2019-02-04T00:08:06.916Z,5.40
2019-02-04T00:12:57.830Z,5.57
2019-02-04T00:17:49.536Z,5.60
2019-02-04T00:22:40.456Z,5.70
2019-02-04T00:27:31.375Z,6.17
2019-02-04T00:32:22.277Z,5.30
2019-02-04T00:37:13.193Z,6.23
2019-02-04T00:42:04.093Z,7.65
2019-02-04T00:46:55.015Z,6.87
2019-02-04T00:51:45.919Z,8.60
2019-02-04T00:56:36.856Z,6.70
2019-02-04T01:01:27.755Z,7.83
2019-02-04T01:06:18.674Z,6.60
2019-02-04T01:11:09.902Z,7.90
2019-02-04T01:16:00.807Z,7.20
2019-02-04T01:20:51.732Z,6.93
2019-02-04T01:25:42.741Z,7.50
2019-02-04T01:30:33.660Z,7.07
2019-02-04T01:35:24.569Z,7.60
2019-02-04T01:40:16.209Z,9.90
2019-02-04T01:45:08.156Z,8.45
2019-02-04T01:49:59.087Z,7.53
2019-02-04T01:54:49.994Z,8.27
2019-02-04T01:59:40.902Z,7.57
2019-02-04T02:04:32.565Z,7.33
2019-02-04T02:09:23.485Z,7.73
2019-02-04T02:14:14.389Z,8.07
2019-02-04T02:19:05.366Z,8.67
2019-02-04T02:23:56.234Z,8.70
2019-02-04T02:28:47.146Z,9.63
2019-02-04T02:33:38.053Z,8.47
2019-02-04T02:38:28.977Z,11.35
2019-02-04T02:43:19.882Z,10.50
2019-02-04T02:48:11.525Z,9.50
2019-02-04T02:53:03.166Z,9.30
2019-02-04T02:57:54.070Z,8.27
2019-02-04T03:02:45.729Z,7.80
2019-02-04T03:07:36.649Z,7.90
2019-02-04T03:12:27.567Z,8.50
2019-02-04T03:17:18.486Z,7.47
2019-02-04T03:22:09.500Z,8.70
2019-02-04T03:27:00.414Z,7.90
2019-02-04T03:31:52.055Z,8.00
2019-02-04T03:36:42.971Z,11.10
2019-02-04T03:41:33.946Z,8.13
2019-02-04T03:46:24.843Z,8.93
2019-02-04T03:51:15.738Z,7.37
2019-02-04T03:56:06.637Z,6.60
2019-02-04T04:00:57.568Z,7.63
2019-02-04T04:05:48.491Z,8.27
2019-02-04T04:10:39.646Z,7.93
2019-02-04T04:15:30.591Z,6.63
2019-02-04T04:20:22.284Z,8.80
2019-02-04T04:25:14.101Z,6.67
2019-02-04T04:30:08.898Z,6.70
2019-02-04T04:35:00.553Z,9.07
2019-02-04T04:39:51.485Z,6.67
2019-02-04T04:44:42.402Z,9.27
2019-02-04T04:49:33.323Z,7.70
2019-02-04T04:54:24.232Z,6.70
2019-02-04T04:59:15.142Z,7.00
2019-02-04T05:04:06.798Z,6.90
2019-02-04T05:08:57.707Z,6.30
2019-02-04T05:13:48.646Z,6.80
2019-02-04T05:18:39.576Z,5.97
2019-02-04T05:23:30.486Z,6.00
2019-02-04T05:28:21.389Z,6.60
2019-02-04T05:33:12.294Z,6.07
2019-02-04T05:38:03.260Z,5.80
2019-02-04T05:42:54.174Z,7.90
2019-02-04T05:47:45.074Z,6.27
2019-02-04T05:52:35.980Z,5.97
2019-02-04T05:57:26.882Z,5.80
2019-02-04T06:02:17.806Z,5.80
2019-02-04T06:07:08.730Z,6.70
2019-02-04T06:11:59.645Z,6.20
2019-02-04T06:16:50.558Z,5.63
2019-02-04T06:21:41.470Z,6.30
2019-02-04T06:26:33.133Z,5.80
2019-02-04T06:31:24.035Z,5.80
2019-02-04T06:36:14.948Z,7.83
2019-02-04T06:41:05.964Z,6.13
2019-02-04T06:45:56.797Z,7.57
2019-02-04T06:50:47.702Z,6.60
2019-02-04T06:55:39.365Z,6.13
2019-02-04T07:00:30.270Z,6.17
2019-02-04T07:05:21.185Z,6.03
2019-02-04T07:10:15.173Z,6.10
2019-02-04T07:15:06.092Z,6.20
2019-02-04T07:19:57.002Z,5.77
2019-02-04T07:24:48.647Z,5.80
2019-02-04T07:29:39.554Z,6.37
2019-02-04T07:34:30.486Z,5.33
2019-02-04T07:39:21.388Z,8.05
2019-02-04T07:44:13.033Z,5.72
2019-02-04T07:49:03.968Z,7.20
2019-02-04T07:53:54.878Z,6.57
2019-02-04T07:58:45.842Z,5.70
2019-02-04T08:03:36.809Z,6.00
2019-02-04T08:08:28.493Z,6.87
2019-02-04T08:13:19.397Z,7.60
2019-02-04T08:18:10.306Z,7.37
2019-02-04T08:23:02.012Z,7.53
2019-02-04T08:27:53.669Z,7.50
2019-02-04T08:32:44.578Z,9.13
2019-02-04T08:37:36.241Z,7.97
2019-02-04T08:42:27.165Z,10.97
2019-02-04T08:47:22.867Z,10.20
2019-02-04T08:52:08.993Z,8.13
2019-02-04T08:56:59.894Z,9.47
2019-02-04T09:01:50.794Z,8.67
2019-02-04T09:06:42.554Z,8.73
2019-02-04T09:11:33.476Z,9.10
2019-02-04T09:16:24.406Z,9.10
2019-02-04T09:21:15.324Z,8.03
2019-02-04T09:26:06.248Z,8.27
2019-02-04T09:30:57.232Z,8.13
2019-02-04T09:35:48.174Z,10.53
2019-02-04T09:40:39.077Z,8.80
2019-02-04T09:45:29.986Z,9.13
2019-02-04T09:50:24.592Z,7.87
2019-02-04T09:55:16.419Z,8.10
2019-02-04T10:00:08.355Z,8.80
2019-02-04T10:04:59.384Z,7.93
2019-02-04T10:09:51.035Z,7.80
2019-02-04T10:14:42.722Z,7.00
2019-02-04T10:19:33.632Z,7.80
2019-02-04T10:24:24.570Z,6.60
2019-02-04T10:29:15.542Z,6.33
2019-02-04T10:34:07.149Z,5.87
2019-02-04T10:38:58.102Z,8.00
2019-02-04T10:43:49.772Z,5.77
2019-02-04T10:48:41.536Z,5.70
2019-02-04T10:53:32.452Z,5.30
2019-02-04T10:58:23.524Z,4.93
2019-02-04T11:03:15.047Z,5.03
2019-02-04T11:08:05.950Z,5.23
2019-02-04T11:12:56.907Z,4.90
2019-02-04T11:17:47.841Z,4.73
2019-02-04T11:22:38.742Z,4.60
2019-02-04T11:27:29.733Z,5.03
2019-02-04T11:32:20.590Z,4.90
2019-02-04T11:37:12.265Z,4.70
2019-02-04T11:42:03.929Z,4.10
2019-02-04T11:46:54.850Z,3.80
2019-02-04T11:51:46.502Z,4.03
2019-02-04T11:56:37.445Z,3.47
2019-02-04T12:01:28.388Z,3.43
2019-02-04T12:06:19.379Z,3.60
2019-02-04T12:11:11.030Z,3.30
2019-02-04T12:16:01.926Z,3.23
2019-02-04T12:20:52.854Z,3.90
2019-02-04T12:25:43.766Z,3.23
2019-02-04T12:30:34.674Z,3.37
2019-02-04T12:35:25.588Z,2.73
2019-02-04T12:40:16.499Z,3.37
2019-02-04T12:45:08.276Z,4.07
2019-02-04T12:49:59.359Z,4.27
2019-02-04T12:54:50.310Z,4.03
2019-02-04T12:59:41.226Z,4.57
2019-02-04T13:04:32.192Z,4.43
2019-02-04T13:09:23.911Z,4.50
2019-02-04T13:14:14.838Z,4.73
2019-02-04T13:19:06.478Z,4.63
2019-02-04T13:23:58.150Z,4.33
2019-02-04T13:28:49.093Z,4.47
2019-02-04T13:33:40.011Z,4.60
2019-02-04T13:38:30.962Z,4.50
2019-02-04T13:43:22.696Z,4.87
2019-02-04T13:48:14.360Z,4.67
2019-02-04T13:53:05.346Z,4.87
2019-02-04T13:57:56.363Z,5.10
2019-02-04T14:02:58.519Z,5.40
2019-02-04T14:07:38.286Z,5.67
2019-02-04T14:12:30.032Z,6.70
2019-02-04T14:17:20.952Z,7.73
2019-02-04T14:22:11.880Z,7.87
2019-02-04T14:27:02.965Z,7.70
2019-02-04T14:31:53.870Z,8.00
2019-02-04T14:36:44.769Z,7.40
2019-02-04T14:41:36.402Z,8.13
2019-02-04T14:46:28.045Z,9.50
2019-02-04T14:57:01.167Z,9.20
2019-02-04T15:02:09.733Z,8.73
2019-02-04T15:07:20.485Z,10.30
2019-02-04T15:12:16.004Z,8.27
2019-02-04T15:17:06.917Z,10.48
2019-02-04T15:22:16.430Z,10.07
2019-02-04T15:27:14.390Z,9.27
2019-02-04T15:32:09.234Z,7.93
2019-02-04T15:37:04.157Z,8.93
2019-02-04T15:42:02.034Z,8.97
2019-02-04T15:47:03.948Z,9.00
2019-02-04T15:51:55.632Z,10.98
2019-02-04T15:56:46.555Z,10.63
2019-02-04T16:01:37.487Z,9.60
2019-02-04T16:06:29.139Z,8.97
2019-02-04T16:11:20.030Z,9.63
2019-02-04T16:16:10.958Z,8.90
2019-02-04T16:21:01.878Z,9.80
2019-02-04T16:25:52.802Z,9.93
2019-02-04T16:30:43.779Z,11.10
2019-02-04T16:35:34.681Z,10.00
2019-02-04T16:40:25.599Z,9.37
2019-02-04T16:45:16.505Z,10.43
2019-02-04T16:50:10.946Z,10.97
2019-02-04T16:55:01.838Z,12.00
2019-02-04T16:59:52.741Z,10.27
2019-02-04T17:04:43.707Z,10.90
2019-02-04T17:09:34.618Z,10.90
2019-02-04T17:14:25.762Z,10.10
2019-02-04T17:19:16.801Z,12.60
2019-02-04T17:24:07.936Z,11.20
2019-02-04T17:28:58.884Z,12.17
2019-02-04T17:33:49.798Z,12.77
2019-02-04T17:38:40.797Z,12.37
2019-02-04T17:43:31.814Z,12.33
2019-02-04T17:48:22.741Z,12.00
2019-02-04T17:53:14.466Z,12.00
2019-02-04T17:58:05.431Z,13.67
2019-02-04T18:02:57.134Z,12.50
2019-02-04T18:07:48.702Z,12.90
2019-02-04T18:12:39.601Z,11.80
2019-02-04T18:17:30.522Z,13.00
2019-02-04T18:22:22.174Z,12.03
2019-02-04T18:27:13.219Z,12.20
2019-02-04T18:32:04.244Z,11.03
2019-02-04T18:36:55.140Z,11.20
2019-02-04T18:41:46.112Z,10.20
2019-02-04T18:46:37.030Z,10.90
2019-02-04T18:51:27.979Z,10.90
2019-02-04T18:56:19.621Z,10.43
2019-02-04T19:01:10.651Z,10.30
2019-02-04T19:06:01.629Z,11.27
2019-02-04T19:10:52.642Z,10.77
2019-02-04T19:15:43.666Z,9.40
2019-02-04T19:20:34.678Z,10.23
2019-02-04T19:25:26.237Z,9.17
2019-02-04T19:30:21.253Z,12.20
2019-02-04T19:35:13.016Z,11.33
2019-02-04T19:40:04.680Z,10.00
2019-02-04T19:44:55.632Z,9.30
2019-02-04T19:49:46.657Z,10.70
2019-02-04T19:54:37.558Z,10.30
2019-02-04T19:59:28.582Z,10.00
2019-02-04T20:04:19.501Z,10.17
2019-02-04T20:09:10.547Z,10.20
2019-02-04T20:14:02.267Z,9.57
2019-02-04T20:18:53.182Z,12.80
2019-02-04T20:23:44.115Z,9.83
2019-02-04T20:28:35.114Z,11.00
2019-02-04T20:33:26.032Z,10.00
2019-02-04T20:38:17.679Z,10.20
2019-02-04T20:43:08.705Z,10.03
2019-02-04T20:47:59.705Z,10.67
2019-02-04T20:52:51.454Z,11.20
2019-02-04T20:57:42.474Z,10.30
2019-02-04T21:02:33.382Z,10.60
2019-02-04T21:07:24.315Z,12.53
2019-02-04T21:12:15.337Z,11.00
2019-02-04T21:17:06.285Z,12.85
2019-02-04T21:21:57.943Z,10.07
2019-02-04T21:26:48.906Z,10.70
2019-02-04T21:31:39.835Z,10.27
2019-02-04T21:36:30.758Z,10.33
2019-02-04T21:41:21.757Z,9.13
2019-02-04T21:46:12.686Z,9.90
2019-02-04T21:51:03.596Z,9.90
2019-02-04T21:55:54.513Z,10.52
2019-02-04T22:00:45.426Z,10.17
2019-02-04T22:05:36.323Z,11.53
2019-02-04T22:10:27.250Z,9.43
2019-02-04T22:15:18.157Z,10.63
2019-02-04T22:20:09.076Z,9.93
2019-02-04T22:24:59.993Z,10.30
2019-02-04T22:29:50.918Z,9.13
2019-02-04T22:34:41.847Z,8.30
2019-02-04T22:39:32.890Z,9.83
2019-02-04T22:44:23.801Z,8.30
2019-02-04T22:49:14.729Z,11.15
2019-02-04T22:54:05.636Z,9.80
2019-02-04T22:58:56.581Z,8.30
2019-02-04T23:03:47.500Z,8.57
2019-02-04T23:08:38.429Z,8.83
2019-02-04T23:13:30.079Z,7.90
2019-02-04T23:18:21.772Z,7.87
2019-02-04T23:23:12.666Z,8.33
2019-02-04T23:28:03.592Z,6.97
2019-02-04T23:32:54.516Z,7.30
2019-02-04T23:37:45.450Z,8.27
2019-02-04T23:42:36.354Z,7.10
2019-02-04T23:47:27.281Z,8.70
2019-02-04T23:52:18.203Z,7.87
2019-02-04T23:57:09.182Z,7.30
